sensor_id;sensor_type;location;lat;lon;timestamp;P1;durP1;ratioP1;P2;durP2;ratioP2
3274;SDS011;1649;53.672;10.064;2024-02-16T00:01:57;16.87;;;8.43;;
3274;SDS011;1649;53.672;10.064;2024-02-16T00:04:23;14.03;;;8.30;;
3274;SDS011;1649;53.672;10.064;2024-02-16T00:06:48;12.43;;;7.30;;
3274;SDS011;1649;53.672;10.064;2024-02-16T00:09:14;13.80;;;8.27;;
3274;SDS011;1649;53.672;10.064;2024-02-16T00:11:39;12.53;;;7.77;;
3274;SDS011;1649;53.672;10.064;2024-02-16T00:14:05;12.50;;;8.00;;
3274;SDS011;1649;53.672;10.064;2024-02-16T00:16:30;14.10;;;8.53;;
3274;SDS011;1649;53.672;10.064;2024-02-16T00:18:56;17.70;;;8.57;;
3274;SDS011;1649;53.672;10.064;2024-02-16T00:21:21;16.03;;;7.70;;
3274;SDS011;1649;53.672;10.064;2024-02-16T00:23:47;12.80;;;7.70;;
3274;SDS011;1649;53.672;10.064;2024-02-16T00:26:12;14.23;;;9.03;;
3274;SDS011;1649;53.672;10.064;2024-02-16T00:28:38;16.30;;;7.60;;
3274;SDS011;1649;53.672;10.064;2024-02-16T00:31:03;12.97;;;7.67;;
3274;SDS011;1649;53.672;10.064;2024-02-16T00:33:30;10.87;;;6.80;;
3274;SDS011;1649;53.672;10.064;2024-02-16T00:35:56;12.87;;;7.93;;
3274;SDS011;1649;53.672;10.064;2024-02-16T00:38:21;13.30;;;6.73;;
3274;SDS011;1649;53.672;10.064;2024-02-16T00:40:48;12.30;;;7.80;;
3274;SDS011;1649;53.672;10.064;2024-02-16T00:43:14;12.80;;;7.70;;
3274;SDS011;1649;53.672;10.064;2024-02-16T00:45:40;12.60;;;6.47;;
3274;SDS011;1649;53.672;10.064;2024-02-16T00:48:09;13.70;;;6.33;;
3274;SDS011;1649;53.672;10.064;2024-02-16T00:50:34;15.30;;;6.70;;
3274;SDS011;1649;53.672;10.064;2024-02-16T00:53:00;10.93;;;6.93;;
3274;SDS011;1649;53.672;10.064;2024-02-16T00:55:26;12.00;;;7.03;;
3274;SDS011;1649;53.672;10.064;2024-02-16T00:57:51;12.57;;;6.73;;
3274;SDS011;1649;53.672;10.064;2024-02-16T01:00:17;11.37;;;7.50;;
3274;SDS011;1649;53.672;10.064;2024-02-16T01:02:44;12.33;;;6.67;;
3274;SDS011;1649;53.672;10.064;2024-02-16T01:05:09;10.50;;;6.00;;
3274;SDS011;1649;53.672;10.064;2024-02-16T01:07:36;13.70;;;5.90;;
3274;SDS011;1649;53.672;10.064;2024-02-16T01:10:01;12.93;;;6.67;;
3274;SDS011;1649;53.672;10.064;2024-02-16T01:12:28;11.27;;;7.23;;
3274;SDS011;1649;53.672;10.064;2024-02-16T01:14:56;13.43;;;6.43;;
3274;SDS011;1649;53.672;10.064;2024-02-16T01:17:21;9.70;;;5.87;;
3274;SDS011;1649;53.672;10.064;2024-02-16T01:19:47;12.87;;;6.40;;
3274;SDS011;1649;53.672;10.064;2024-02-16T01:22:12;10.20;;;5.83;;
3274;SDS011;1649;53.672;10.064;2024-02-16T01:24:38;12.27;;;5.80;;
3274;SDS011;1649;53.672;10.064;2024-02-16T01:27:03;12.43;;;6.10;;
3274;SDS011;1649;53.672;10.064;2024-02-16T01:29:29;12.37;;;5.10;;
3274;SDS011;1649;53.672;10.064;2024-02-16T01:31:54;10.83;;;6.20;;
3274;SDS011;1649;53.672;10.064;2024-02-16T01:34:20;9.70;;;5.33;;
3274;SDS011;1649;53.672;10.064;2024-02-16T01:36:46;10.13;;;5.90;;
3274;SDS011;1649;53.672;10.064;2024-02-16T01:39:11;8.87;;;5.57;;
3274;SDS011;1649;53.672;10.064;2024-02-16T01:41:40;9.27;;;5.20;;
3274;SDS011;1649;53.672;10.064;2024-02-16T01:44:05;9.33;;;6.10;;
3274;SDS011;1649;53.672;10.064;2024-02-16T01:46:31;8.57;;;5.47;;
3274;SDS011;1649;53.672;10.064;2024-02-16T01:48:58;11.87;;;5.83;;
3274;SDS011;1649;53.672;10.064;2024-02-16T01:51:24;9.87;;;5.53;;
3274;SDS011;1649;53.672;10.064;2024-02-16T01:53:50;8.47;;;5.27;;
3274;SDS011;1649;53.672;10.064;2024-02-16T01:56:17;11.67;;;5.73;;
3274;SDS011;1649;53.672;10.064;2024-02-16T01:58:45;9.73;;;4.83;;
3274;SDS011;1649;53.672;10.064;2024-02-16T02:01:11;9.40;;;5.70;;
3274;SDS011;1649;53.672;10.064;2024-02-16T02:03:36;9.00;;;6.10;;
3274;SDS011;1649;53.672;10.064;2024-02-16T02:06:02;11.20;;;5.53;;
3274;SDS011;1649;53.672;10.064;2024-02-16T02:08:28;12.00;;;5.57;;
3274;SDS011;1649;53.672;10.064;2024-02-16T02:10:53;8.83;;;5.70;;
3274;SDS011;1649;53.672;10.064;2024-02-16T02:13:19;8.97;;;5.07;;
3274;SDS011;1649;53.672;10.064;2024-02-16T02:15:46;8.20;;;5.20;;
3274;SDS011;1649;53.672;10.064;2024-02-16T02:18:12;12.10;;;5.20;;
3274;SDS011;1649;53.672;10.064;2024-02-16T02:20:38;8.80;;;5.57;;
3274;SDS011;1649;53.672;10.064;2024-02-16T02:23:03;10.17;;;5.70;;
3274;SDS011;1649;53.672;10.064;2024-02-16T02:25:29;11.00;;;6.07;;
3274;SDS011;1649;53.672;10.064;2024-02-16T02:27:54;10.00;;;5.70;;
3274;SDS011;1649;53.672;10.064;2024-02-16T02:30:20;11.60;;;6.70;;
3274;SDS011;1649;53.672;10.064;2024-02-16T02:32:46;8.73;;;5.93;;
3274;SDS011;1649;53.672;10.064;2024-02-16T02:35:13;12.93;;;6.40;;
3274;SDS011;1649;53.672;10.064;2024-02-16T02:37:40;9.57;;;5.00;;
3274;SDS011;1649;53.672;10.064;2024-02-16T02:40:06;11.50;;;5.97;;
3274;SDS011;1649;53.672;10.064;2024-02-16T02:42:33;8.73;;;5.43;;
3274;SDS011;1649;53.672;10.064;2024-02-16T02:44:59;9.60;;;5.07;;
3274;SDS011;1649;53.672;10.064;2024-02-16T02:47:24;12.80;;;5.30;;
3274;SDS011;1649;53.672;10.064;2024-02-16T02:49:50;9.80;;;5.40;;
3274;SDS011;1649;53.672;10.064;2024-02-16T02:52:15;10.43;;;5.93;;
3274;SDS011;1649;53.672;10.064;2024-02-16T02:54:42;11.90;;;6.00;;
3274;SDS011;1649;53.672;10.064;2024-02-16T02:57:07;11.47;;;5.37;;
3274;SDS011;1649;53.672;10.064;2024-02-16T02:59:33;9.03;;;5.40;;
3274;SDS011;1649;53.672;10.064;2024-02-16T03:01:58;8.90;;;5.60;;
3274;SDS011;1649;53.672;10.064;2024-02-16T03:04:24;10.30;;;6.70;;
3274;SDS011;1649;53.672;10.064;2024-02-16T03:06:52;10.17;;;5.53;;
3274;SDS011;1649;53.672;10.064;2024-02-16T03:09:18;11.70;;;6.33;;
3274;SDS011;1649;53.672;10.064;2024-02-16T03:11:43;10.33;;;5.50;;
3274;SDS011;1649;53.672;10.064;2024-02-16T03:14:09;9.37;;;5.70;;
3274;SDS011;1649;53.672;10.064;2024-02-16T03:16:34;10.57;;;5.70;;
3274;SDS011;1649;53.672;10.064;2024-02-16T03:19:00;7.90;;;4.73;;
3274;SDS011;1649;53.672;10.064;2024-02-16T03:21:25;9.87;;;5.37;;
3274;SDS011;1649;53.672;10.064;2024-02-16T03:23:51;15.93;;;5.70;;
3274;SDS011;1649;53.672;10.064;2024-02-16T03:26:17;9.87;;;5.50;;
3274;SDS011;1649;53.672;10.064;2024-02-16T03:28:44;10.90;;;6.00;;
3274;SDS011;1649;53.672;10.064;2024-02-16T03:31:18;12.13;;;5.70;;
3274;SDS011;1649;53.672;10.064;2024-02-16T03:33:45;13.50;;;5.20;;
3274;SDS011;1649;53.672;10.064;2024-02-16T03:36:10;8.70;;;4.83;;
3274;SDS011;1649;53.672;10.064;2024-02-16T03:38:42;10.27;;;5.70;;
3274;SDS011;1649;53.672;10.064;2024-02-16T03:41:17;10.47;;;5.80;;
3274;SDS011;1649;53.672;10.064;2024-02-16T03:43:43;11.00;;;4.77;;
3274;SDS011;1649;53.672;10.064;2024-02-16T03:46:09;8.40;;;5.23;;
3274;SDS011;1649;53.672;10.064;2024-02-16T03:48:35;12.40;;;5.47;;
3274;SDS011;1649;53.672;10.064;2024-02-16T03:51:01;11.07;;;4.87;;
3274;SDS011;1649;53.672;10.064;2024-02-16T03:53:28;8.20;;;4.80;;
3274;SDS011;1649;53.672;10.064;2024-02-16T03:55:53;9.80;;;6.40;;
3274;SDS011;1649;53.672;10.064;2024-02-16T03:58:19;9.73;;;4.70;;
3274;SDS011;1649;53.672;10.064;2024-02-16T04:00:44;10.80;;;5.20;;
3274;SDS011;1649;53.672;10.064;2024-02-16T04:03:10;9.07;;;5.03;;
3274;SDS011;1649;53.672;10.064;2024-02-16T04:05:38;8.57;;;5.47;;
3274;SDS011;1649;53.672;10.064;2024-02-16T04:08:04;12.67;;;5.80;;
3274;SDS011;1649;53.672;10.064;2024-02-16T04:10:31;9.87;;;5.43;;
3274;SDS011;1649;53.672;10.064;2024-02-16T04:12:57;8.60;;;5.13;;
3274;SDS011;1649;53.672;10.064;2024-02-16T04:15:22;10.53;;;5.37;;
3274;SDS011;1649;53.672;10.064;2024-02-16T04:17:48;13.93;;;6.07;;
3274;SDS011;1649;53.672;10.064;2024-02-16T04:20:15;11.80;;;5.67;;
3274;SDS011;1649;53.672;10.064;2024-02-16T04:22:41;9.13;;;5.17;;
3274;SDS011;1649;53.672;10.064;2024-02-16T04:25:06;9.07;;;5.00;;
3274;SDS011;1649;53.672;10.064;2024-02-16T04:27:33;8.13;;;4.70;;
3274;SDS011;1649;53.672;10.064;2024-02-16T04:29:59;11.70;;;4.73;;
3274;SDS011;1649;53.672;10.064;2024-02-16T04:32:25;11.57;;;5.63;;
3274;SDS011;1649;53.672;10.064;2024-02-16T04:34:51;11.63;;;4.90;;
3274;SDS011;1649;53.672;10.064;2024-02-16T04:37:23;8.50;;;5.13;;
3274;SDS011;1649;53.672;10.064;2024-02-16T04:39:50;8.33;;;4.27;;
3274;SDS011;1649;53.672;10.064;2024-02-16T04:42:16;8.20;;;5.07;;
3274;SDS011;1649;53.672;10.064;2024-02-16T04:44:42;14.97;;;5.93;;
3274;SDS011;1649;53.672;10.064;2024-02-16T04:47:07;12.00;;;5.63;;
3274;SDS011;1649;53.672;10.064;2024-02-16T04:49:34;11.00;;;5.47;;
3274;SDS011;1649;53.672;10.064;2024-02-16T04:51:59;9.80;;;5.43;;
3274;SDS011;1649;53.672;10.064;2024-02-16T04:54:25;12.23;;;5.50;;
3274;SDS011;1649;53.672;10.064;2024-02-16T04:56:50;11.00;;;4.70;;
3274;SDS011;1649;53.672;10.064;2024-02-16T04:59:16;9.07;;;4.77;;
3274;SDS011;1649;53.672;10.064;2024-02-16T05:01:45;10.23;;;5.63;;
3274;SDS011;1649;53.672;10.064;2024-02-16T05:04:11;8.73;;;4.33;;
3274;SDS011;1649;53.672;10.064;2024-02-16T05:06:42;8.80;;;5.10;;
3274;SDS011;1649;53.672;10.064;2024-02-16T05:09:11;9.53;;;5.13;;
3274;SDS011;1649;53.672;10.064;2024-02-16T05:11:37;8.90;;;5.30;;
3274;SDS011;1649;53.672;10.064;2024-02-16T05:14:02;8.23;;;4.87;;
3274;SDS011;1649;53.672;10.064;2024-02-16T05:16:28;10.07;;;5.33;;
3274;SDS011;1649;53.672;10.064;2024-02-16T05:18:55;12.90;;;6.13;;
3274;SDS011;1649;53.672;10.064;2024-02-16T05:21:21;8.97;;;5.10;;
3274;SDS011;1649;53.672;10.064;2024-02-16T05:23:47;13.03;;;5.70;;
3274;SDS011;1649;53.672;10.064;2024-02-16T05:26:13;9.00;;;4.90;;
3274;SDS011;1649;53.672;10.064;2024-02-16T05:28:38;12.90;;;5.43;;
3274;SDS011;1649;53.672;10.064;2024-02-16T05:31:12;10.10;;;5.00;;
3274;SDS011;1649;53.672;10.064;2024-02-16T05:33:43;10.67;;;5.07;;
3274;SDS011;1649;53.672;10.064;2024-02-16T05:36:16;10.50;;;4.80;;
3274;SDS011;1649;53.672;10.064;2024-02-16T05:38:48;13.83;;;5.10;;
3274;SDS011;1649;53.672;10.064;2024-02-16T05:41:15;10.87;;;5.50;;
3274;SDS011;1649;53.672;10.064;2024-02-16T05:43:42;15.13;;;5.27;;
3274;SDS011;1649;53.672;10.064;2024-02-16T05:46:12;10.33;;;5.17;;
3274;SDS011;1649;53.672;10.064;2024-02-16T05:48:39;9.60;;;5.50;;
3274;SDS011;1649;53.672;10.064;2024-02-16T05:51:05;8.13;;;4.23;;
3274;SDS011;1649;53.672;10.064;2024-02-16T05:53:31;10.77;;;4.93;;
3274;SDS011;1649;53.672;10.064;2024-02-16T05:56:00;11.90;;;5.07;;
3274;SDS011;1649;53.672;10.064;2024-02-16T05:58:26;11.40;;;5.50;;
3274;SDS011;1649;53.672;10.064;2024-02-16T06:00:53;9.67;;;4.80;;
3274;SDS011;1649;53.672;10.064;2024-02-16T06:03:19;11.73;;;6.17;;
3274;SDS011;1649;53.672;10.064;2024-02-16T06:05:45;10.63;;;5.47;;
3274;SDS011;1649;53.672;10.064;2024-02-16T06:08:10;9.90;;;5.33;;
3274;SDS011;1649;53.672;10.064;2024-02-16T06:10:36;10.40;;;4.33;;
3274;SDS011;1649;53.672;10.064;2024-02-16T06:13:02;11.73;;;4.77;;
3274;SDS011;1649;53.672;10.064;2024-02-16T06:15:27;9.73;;;5.30;;
3274;SDS011;1649;53.672;10.064;2024-02-16T06:17:53;10.37;;;4.77;;
3274;SDS011;1649;53.672;10.064;2024-02-16T06:20:19;9.23;;;4.77;;
3274;SDS011;1649;53.672;10.064;2024-02-16T06:22:44;15.83;;;6.37;;
3274;SDS011;1649;53.672;10.064;2024-02-16T06:25:10;11.00;;;5.67;;
3274;SDS011;1649;53.672;10.064;2024-02-16T06:27:35;8.30;;;5.50;;
3274;SDS011;1649;53.672;10.064;2024-02-16T06:30:02;14.60;;;4.60;;
3274;SDS011;1649;53.672;10.064;2024-02-16T06:32:29;10.50;;;5.50;;
3274;SDS011;1649;53.672;10.064;2024-02-16T06:34:56;10.63;;;5.73;;
3274;SDS011;1649;53.672;10.064;2024-02-16T06:37:21;12.33;;;6.50;;
3274;SDS011;1649;53.672;10.064;2024-02-16T06:39:47;15.10;;;8.20;;
3274;SDS011;1649;53.672;10.064;2024-02-16T06:42:13;10.50;;;5.73;;
3274;SDS011;1649;53.672;10.064;2024-02-16T06:44:38;19.70;;;5.90;;
3274;SDS011;1649;53.672;10.064;2024-02-16T06:47:05;8.93;;;5.80;;
3274;SDS011;1649;53.672;10.064;2024-02-16T06:49:31;10.40;;;5.87;;
3274;SDS011;1649;53.672;10.064;2024-02-16T06:51:56;12.47;;;6.10;;
3274;SDS011;1649;53.672;10.064;2024-02-16T06:54:22;12.03;;;4.67;;
3274;SDS011;1649;53.672;10.064;2024-02-16T06:56:49;14.03;;;7.13;;
3274;SDS011;1649;53.672;10.064;2024-02-16T06:59:16;10.53;;;6.10;;
3274;SDS011;1649;53.672;10.064;2024-02-16T07:01:42;15.17;;;8.80;;
3274;SDS011;1649;53.672;10.064;2024-02-16T07:04:07;18.10;;;11.63;;
3274;SDS011;1649;53.672;10.064;2024-02-16T07:06:34;11.30;;;8.43;;
3274;SDS011;1649;53.672;10.064;2024-02-16T07:09:00;10.47;;;5.53;;
3274;SDS011;1649;53.672;10.064;2024-02-16T07:11:25;10.10;;;6.87;;
3274;SDS011;1649;53.672;10.064;2024-02-16T07:13:50;12.60;;;7.07;;
3274;SDS011;1649;53.672;10.064;2024-02-16T07:16:16;12.67;;;7.50;;
3274;SDS011;1649;53.672;10.064;2024-02-16T07:18:43;12.27;;;7.10;;
3274;SDS011;1649;53.672;10.064;2024-02-16T07:21:08;12.43;;;6.80;;
3274;SDS011;1649;53.672;10.064;2024-02-16T07:23:34;8.60;;;5.20;;
3274;SDS011;1649;53.672;10.064;2024-02-16T07:25:59;11.57;;;5.20;;
3274;SDS011;1649;53.672;10.064;2024-02-16T07:28:26;9.37;;;5.30;;
3274;SDS011;1649;53.672;10.064;2024-02-16T07:30:52;9.13;;;4.40;;
3274;SDS011;1649;53.672;10.064;2024-02-16T07:33:18;10.60;;;5.17;;
3274;SDS011;1649;53.672;10.064;2024-02-16T07:35:43;11.17;;;5.20;;
3274;SDS011;1649;53.672;10.064;2024-02-16T07:38:09;8.60;;;4.73;;
3274;SDS011;1649;53.672;10.064;2024-02-16T07:40:35;10.20;;;4.87;;
3274;SDS011;1649;53.672;10.064;2024-02-16T07:43:00;8.97;;;5.67;;
3274;SDS011;1649;53.672;10.064;2024-02-16T07:45:26;8.53;;;5.20;;
3274;SDS011;1649;53.672;10.064;2024-02-16T07:47:51;9.17;;;5.37;;
3274;SDS011;1649;53.672;10.064;2024-02-16T07:50:20;8.50;;;4.40;;
3274;SDS011;1649;53.672;10.064;2024-02-16T07:52:47;8.40;;;4.40;;
3274;SDS011;1649;53.672;10.064;2024-02-16T07:55:14;6.90;;;4.10;;
3274;SDS011;1649;53.672;10.064;2024-02-16T07:57:39;9.13;;;3.90;;
3274;SDS011;1649;53.672;10.064;2024-02-16T08:00:05;6.77;;;4.27;;
3274;SDS011;1649;53.672;10.064;2024-02-16T08:02:31;7.73;;;4.00;;
3274;SDS011;1649;53.672;10.064;2024-02-16T08:04:57;7.07;;;3.80;;
3274;SDS011;1649;53.672;10.064;2024-02-16T08:07:23;12.77;;;4.10;;
3274;SDS011;1649;53.672;10.064;2024-02-16T08:09:49;7.83;;;3.90;;
3274;SDS011;1649;53.672;10.064;2024-02-16T08:12:15;7.10;;;4.00;;
3274;SDS011;1649;53.672;10.064;2024-02-16T08:14:41;6.60;;;3.33;;
3274;SDS011;1649;53.672;10.064;2024-02-16T08:17:07;8.77;;;3.37;;
3274;SDS011;1649;53.672;10.064;2024-02-16T08:19:34;6.40;;;3.23;;
3274;SDS011;1649;53.672;10.064;2024-02-16T08:22:03;6.70;;;3.53;;
3274;SDS011;1649;53.672;10.064;2024-02-16T08:24:33;8.00;;;3.87;;
3274;SDS011;1649;53.672;10.064;2024-02-16T08:26:59;10.70;;;3.70;;
3274;SDS011;1649;53.672;10.064;2024-02-16T08:29:25;5.70;;;3.50;;
3274;SDS011;1649;53.672;10.064;2024-02-16T08:31:51;5.93;;;2.90;;
3274;SDS011;1649;53.672;10.064;2024-02-16T08:34:17;10.67;;;3.60;;
3274;SDS011;1649;53.672;10.064;2024-02-16T08:36:49;7.17;;;3.30;;
3274;SDS011;1649;53.672;10.064;2024-02-16T08:39:15;7.57;;;3.43;;
3274;SDS011;1649;53.672;10.064;2024-02-16T08:41:41;5.70;;;3.47;;
3274;SDS011;1649;53.672;10.064;2024-02-16T08:44:09;5.90;;;3.27;;
3274;SDS011;1649;53.672;10.064;2024-02-16T08:46:35;6.33;;;3.80;;
3274;SDS011;1649;53.672;10.064;2024-02-16T08:49:01;6.63;;;3.40;;
3274;SDS011;1649;53.672;10.064;2024-02-16T08:51:27;6.30;;;3.90;;
3274;SDS011;1649;53.672;10.064;2024-02-16T08:53:53;7.97;;;3.90;;
3274;SDS011;1649;53.672;10.064;2024-02-16T08:56:19;7.90;;;3.30;;
3274;SDS011;1649;53.672;10.064;2024-02-16T08:58:44;8.87;;;3.30;;
3274;SDS011;1649;53.672;10.064;2024-02-16T09:01:10;7.17;;;3.80;;
3274;SDS011;1649;53.672;10.064;2024-02-16T09:03:35;7.37;;;3.43;;
3274;SDS011;1649;53.672;10.064;2024-02-16T09:06:03;8.73;;;3.10;;
3274;SDS011;1649;53.672;10.064;2024-02-16T09:08:29;7.60;;;3.33;;
3274;SDS011;1649;53.672;10.064;2024-02-16T09:11:01;9.13;;;3.30;;
3274;SDS011;1649;53.672;10.064;2024-02-16T09:13:30;5.43;;;3.07;;
3274;SDS011;1649;53.672;10.064;2024-02-16T09:15:59;6.67;;;3.00;;
3274;SDS011;1649;53.672;10.064;2024-02-16T09:18:25;6.80;;;2.97;;
3274;SDS011;1649;53.672;10.064;2024-02-16T09:20:51;6.23;;;3.10;;
3274;SDS011;1649;53.672;10.064;2024-02-16T09:23:16;7.17;;;2.77;;
3274;SDS011;1649;53.672;10.064;2024-02-16T09:25:42;5.43;;;3.17;;
3274;SDS011;1649;53.672;10.064;2024-02-16T09:28:08;11.07;;;3.20;;
3274;SDS011;1649;53.672;10.064;2024-02-16T09:30:34;6.47;;;2.90;;
3274;SDS011;1649;53.672;10.064;2024-02-16T09:32:59;8.57;;;3.37;;
3274;SDS011;1649;53.672;10.064;2024-02-16T09:35:25;6.60;;;2.73;;
3274;SDS011;1649;53.672;10.064;2024-02-16T09:37:50;8.30;;;3.50;;
3274;SDS011;1649;53.672;10.064;2024-02-16T09:40:15;7.50;;;3.23;;
3274;SDS011;1649;53.672;10.064;2024-02-16T09:42:43;8.37;;;3.17;;
3274;SDS011;1649;53.672;10.064;2024-02-16T09:45:14;5.30;;;2.77;;
3274;SDS011;1649;53.672;10.064;2024-02-16T09:47:41;7.23;;;3.10;;
3274;SDS011;1649;53.672;10.064;2024-02-16T09:50:09;8.07;;;3.07;;
3274;SDS011;1649;53.672;10.064;2024-02-16T09:52:35;9.73;;;3.03;;
3274;SDS011;1649;53.672;10.064;2024-02-16T09:55:01;5.53;;;3.00;;
3274;SDS011;1649;53.672;10.064;2024-02-16T09:57:27;7.43;;;3.00;;
3274;SDS011;1649;53.672;10.064;2024-02-16T09:59:52;8.40;;;3.27;;
3274;SDS011;1649;53.672;10.064;2024-02-16T10:02:18;6.37;;;3.27;;
3274;SDS011;1649;53.672;10.064;2024-02-16T10:04:44;5.90;;;3.37;;
3274;SDS011;1649;53.672;10.064;2024-02-16T10:07:09;8.00;;;3.37;;
3274;SDS011;1649;53.672;10.064;2024-02-16T10:09:35;9.40;;;3.70;;
3274;SDS011;1649;53.672;10.064;2024-02-16T10:12:00;7.33;;;3.27;;
3274;SDS011;1649;53.672;10.064;2024-02-16T10:14:26;9.30;;;3.30;;
3274;SDS011;1649;53.672;10.064;2024-02-16T10:16:59;7.90;;;3.57;;
3274;SDS011;1649;53.672;10.064;2024-02-16T10:19:27;8.70;;;2.93;;
3274;SDS011;1649;53.672;10.064;2024-02-16T10:21:52;13.30;;;3.83;;
3274;SDS011;1649;53.672;10.064;2024-02-16T10:24:21;5.07;;;2.93;;
3274;SDS011;1649;53.672;10.064;2024-02-16T10:26:47;6.10;;;3.00;;
3274;SDS011;1649;53.672;10.064;2024-02-16T10:29:14;7.77;;;3.77;;
3274;SDS011;1649;53.672;10.064;2024-02-16T10:31:44;8.30;;;3.93;;
3274;SDS011;1649;53.672;10.064;2024-02-16T10:34:10;9.17;;;3.53;;
3274;SDS011;1649;53.672;10.064;2024-02-16T10:36:36;7.73;;;3.00;;
3274;SDS011;1649;53.672;10.064;2024-02-16T10:39:03;9.70;;;3.17;;
3274;SDS011;1649;53.672;10.064;2024-02-16T10:41:30;9.43;;;2.87;;
3274;SDS011;1649;53.672;10.064;2024-02-16T10:44:02;6.87;;;2.80;;
3274;SDS011;1649;53.672;10.064;2024-02-16T10:46:29;10.73;;;3.00;;
3274;SDS011;1649;53.672;10.064;2024-02-16T10:48:55;10.50;;;3.23;;
3274;SDS011;1649;53.672;10.064;2024-02-16T10:54:09;5.43;;;2.97;;
3274;SDS011;1649;53.672;10.064;2024-02-16T10:56:36;7.73;;;3.47;;
3274;SDS011;1649;53.672;10.064;2024-02-16T10:59:03;6.20;;;3.43;;
3274;SDS011;1649;53.672;10.064;2024-02-16T11:01:47;6.90;;;3.23;;
3274;SDS011;1649;53.672;10.064;2024-02-16T11:04:23;6.53;;;2.90;;
3274;SDS011;1649;53.672;10.064;2024-02-16T11:06:51;6.37;;;2.90;;
3274;SDS011;1649;53.672;10.064;2024-02-16T11:09:27;6.93;;;3.80;;
3274;SDS011;1649;53.672;10.064;2024-02-16T11:11:54;7.07;;;3.33;;
3274;SDS011;1649;53.672;10.064;2024-02-16T11:14:23;6.30;;;3.00;;
3274;SDS011;1649;53.672;10.064;2024-02-16T11:16:49;6.87;;;3.00;;
3274;SDS011;1649;53.672;10.064;2024-02-16T11:19:19;8.23;;;3.60;;
3274;SDS011;1649;53.672;10.064;2024-02-16T11:21:56;6.20;;;3.07;;
3274;SDS011;1649;53.672;10.064;2024-02-16T11:24:30;7.17;;;3.50;;
3274;SDS011;1649;53.672;10.064;2024-02-16T11:26:57;6.47;;;2.90;;
3274;SDS011;1649;53.672;10.064;2024-02-16T11:29:23;7.00;;;3.10;;
3274;SDS011;1649;53.672;10.064;2024-02-16T11:31:50;6.93;;;3.27;;
3274;SDS011;1649;53.672;10.064;2024-02-16T11:34:22;7.83;;;3.67;;
3274;SDS011;1649;53.672;10.064;2024-02-16T11:36:48;5.47;;;2.77;;
3274;SDS011;1649;53.672;10.064;2024-02-16T11:39:13;5.57;;;2.70;;
3274;SDS011;1649;53.672;10.064;2024-02-16T11:41:42;5.53;;;3.03;;
3274;SDS011;1649;53.672;10.064;2024-02-16T11:44:08;7.73;;;3.00;;
3274;SDS011;1649;53.672;10.064;2024-02-16T11:46:33;6.43;;;3.00;;
3274;SDS011;1649;53.672;10.064;2024-02-16T11:49:04;5.23;;;2.87;;
3274;SDS011;1649;53.672;10.064;2024-02-16T11:51:30;6.10;;;2.50;;
3274;SDS011;1649;53.672;10.064;2024-02-16T11:53:57;6.23;;;2.60;;
3274;SDS011;1649;53.672;10.064;2024-02-16T11:56:24;7.60;;;2.70;;
3274;SDS011;1649;53.672;10.064;2024-02-16T11:58:50;5.53;;;2.67;;
3274;SDS011;1649;53.672;10.064;2024-02-16T12:01:16;7.63;;;3.07;;
3274;SDS011;1649;53.672;10.064;2024-02-16T12:03:42;6.73;;;2.83;;
3274;SDS011;1649;53.672;10.064;2024-02-16T12:06:07;6.23;;;3.10;;
3274;SDS011;1649;53.672;10.064;2024-02-16T12:08:33;7.63;;;3.10;;
3274;SDS011;1649;53.672;10.064;2024-02-16T12:11:00;5.83;;;2.50;;
3274;SDS011;1649;53.672;10.064;2024-02-16T12:13:27;5.37;;;2.77;;
3274;SDS011;1649;53.672;10.064;2024-02-16T12:15:52;5.70;;;2.80;;
3274;SDS011;1649;53.672;10.064;2024-02-16T12:18:21;8.50;;;2.93;;
3274;SDS011;1649;53.672;10.064;2024-02-16T12:21:03;5.03;;;2.73;;
3274;SDS011;1649;53.672;10.064;2024-02-16T12:23:32;8.33;;;3.30;;
3274;SDS011;1649;53.672;10.064;2024-02-16T12:25:59;7.20;;;3.30;;
3274;SDS011;1649;53.672;10.064;2024-02-16T12:28:25;9.03;;;3.70;;
3274;SDS011;1649;53.672;10.064;2024-02-16T12:30:57;9.03;;;3.10;;
3274;SDS011;1649;53.672;10.064;2024-02-16T12:33:23;7.43;;;3.20;;
3274;SDS011;1649;53.672;10.064;2024-02-16T12:35:49;6.50;;;3.43;;
3274;SDS011;1649;53.672;10.064;2024-02-16T12:38:15;5.87;;;3.43;;
3274;SDS011;1649;53.672;10.064;2024-02-16T12:40:47;7.37;;;3.47;;
3274;SDS011;1649;53.672;10.064;2024-02-16T12:43:13;7.80;;;3.60;;
3274;SDS011;1649;53.672;10.064;2024-02-16T12:45:39;7.27;;;3.90;;
3274;SDS011;1649;53.672;10.064;2024-02-16T12:48:05;7.77;;;3.53;;
3274;SDS011;1649;53.672;10.064;2024-02-16T12:50:31;7.13;;;3.47;;
3274;SDS011;1649;53.672;10.064;2024-02-16T12:52:56;7.97;;;3.40;;
3274;SDS011;1649;53.672;10.064;2024-02-16T12:55:23;7.27;;;4.10;;
3274;SDS011;1649;53.672;10.064;2024-02-16T12:57:49;6.23;;;3.27;;
3274;SDS011;1649;53.672;10.064;2024-02-16T13:00:16;7.57;;;4.50;;
3274;SDS011;1649;53.672;10.064;2024-02-16T13:02:42;7.13;;;4.07;;
3274;SDS011;1649;53.672;10.064;2024-02-16T13:05:07;7.30;;;3.60;;
3274;SDS011;1649;53.672;10.064;2024-02-16T13:07:33;6.90;;;3.70;;
3274;SDS011;1649;53.672;10.064;2024-02-16T13:09:59;6.80;;;3.90;;
3274;SDS011;1649;53.672;10.064;2024-02-16T13:12:24;8.33;;;4.10;;
3274;SDS011;1649;53.672;10.064;2024-02-16T13:14:50;8.00;;;3.90;;
3274;SDS011;1649;53.672;10.064;2024-02-16T13:17:15;9.57;;;4.40;;
3274;SDS011;1649;53.672;10.064;2024-02-16T13:19:41;12.97;;;4.43;;
3274;SDS011;1649;53.672;10.064;2024-02-16T13:22:07;8.87;;;4.70;;
3274;SDS011;1649;53.672;10.064;2024-02-16T13:24:32;8.73;;;4.13;;
3274;SDS011;1649;53.672;10.064;2024-02-16T13:26:58;13.00;;;4.90;;
3274;SDS011;1649;53.672;10.064;2024-02-16T13:29:24;9.30;;;4.47;;
3274;SDS011;1649;53.672;10.064;2024-02-16T13:31:49;8.23;;;4.50;;
3274;SDS011;1649;53.672;10.064;2024-02-16T13:34:15;9.10;;;4.13;;
3274;SDS011;1649;53.672;10.064;2024-02-16T13:36:41;12.03;;;4.70;;
3274;SDS011;1649;53.672;10.064;2024-02-16T13:39:06;9.63;;;4.80;;
3274;SDS011;1649;53.672;10.064;2024-02-16T13:41:33;7.40;;;4.70;;
3274;SDS011;1649;53.672;10.064;2024-02-16T13:43:58;8.40;;;4.27;;
3274;SDS011;1649;53.672;10.064;2024-02-16T13:46:24;8.30;;;4.50;;
3274;SDS011;1649;53.672;10.064;2024-02-16T13:48:49;8.80;;;4.63;;
3274;SDS011;1649;53.672;10.064;2024-02-16T13:51:15;7.70;;;4.57;;
3274;SDS011;1649;53.672;10.064;2024-02-16T13:53:40;8.27;;;4.57;;
3274;SDS011;1649;53.672;10.064;2024-02-16T13:56:06;9.27;;;5.20;;
3274;SDS011;1649;53.672;10.064;2024-02-16T13:58:31;7.67;;;4.80;;
3274;SDS011;1649;53.672;10.064;2024-02-16T14:00:59;9.43;;;5.10;;
3274;SDS011;1649;53.672;10.064;2024-02-16T14:03:25;9.27;;;5.57;;
3274;SDS011;1649;53.672;10.064;2024-02-16T14:05:51;10.47;;;5.50;;
3274;SDS011;1649;53.672;10.064;2024-02-16T14:08:16;11.20;;;5.70;;
3274;SDS011;1649;53.672;10.064;2024-02-16T14:10:42;9.03;;;5.30;;
3274;SDS011;1649;53.672;10.064;2024-02-16T14:13:08;9.50;;;5.60;;
3274;SDS011;1649;53.672;10.064;2024-02-16T14:15:34;11.90;;;5.47;;
3274;SDS011;1649;53.672;10.064;2024-02-16T14:18:00;13.10;;;5.23;;
3274;SDS011;1649;53.672;10.064;2024-02-16T14:20:25;10.90;;;5.57;;
3274;SDS011;1649;53.672;10.064;2024-02-16T14:22:51;9.73;;;5.90;;
3274;SDS011;1649;53.672;10.064;2024-02-16T14:25:16;10.03;;;5.87;;
3274;SDS011;1649;53.672;10.064;2024-02-16T14:27:43;12.50;;;5.80;;
3274;SDS011;1649;53.672;10.064;2024-02-16T14:30:10;12.20;;;7.00;;
3274;SDS011;1649;53.672;10.064;2024-02-16T14:32:36;10.53;;;5.90;;
3274;SDS011;1649;53.672;10.064;2024-02-16T14:35:02;15.20;;;6.33;;
3274;SDS011;1649;53.672;10.064;2024-02-16T14:37:28;10.67;;;6.13;;
3274;SDS011;1649;53.672;10.064;2024-02-16T14:39:54;10.13;;;6.43;;
3274;SDS011;1649;53.672;10.064;2024-02-16T14:42:24;10.10;;;6.13;;
3274;SDS011;1649;53.672;10.064;2024-02-16T14:44:49;10.87;;;6.40;;
3274;SDS011;1649;53.672;10.064;2024-02-16T14:47:16;11.03;;;6.20;;
3274;SDS011;1649;53.672;10.064;2024-02-16T14:49:41;12.67;;;6.40;;
3274;SDS011;1649;53.672;10.064;2024-02-16T14:52:07;14.43;;;7.47;;
3274;SDS011;1649;53.672;10.064;2024-02-16T14:54:34;11.57;;;7.17;;